KBPG

Big Spring Mc Mahon-Wrinkle Airport

Big Spring, Texas, USA
METAR KBPG 201515Z AUTO 25004KT 10SM CLR 17/08 A2993 RMK AO2 T01700077
Observed Flight Rules
Feb-20 @ 15:15 UTC (2 hours ago) Visual Flight Rules
Wind Visibility Clouds
250° at 4 knots 10 miles
  • Clear skies
Temperatures Readings
Current 17°C / 63°F
Dewpoint 8°C / 46°F
Humidity 56%
Altimeter 29.93" Hg
Pressure 1014 hPa
Elevation 784
METAR KBPG 201515Z AUTO 25004KT 10SM CLR 17/08 A2993 RMK AO2 T01700077
Observed Flight Rules
Feb-20 @ 15:15 UTC
(2 hours ago)
VFR
Wind Visibility
250° at 4 knots 10 miles
Clouds
  • Clear skies
Temperature Dewpoint
17°C / 63°F 8°C / 46°F
Humidity Altimeter Pressure
56% 29.93" Hg 1014 hPa